Time;durP1;ratioP1;P1;durP2;ratioP2;P2;SDS_P1;SDS_P2;PMS_P1;PMS_P2;Temp;Humidity;BMP_temperature;BMP_pressure;BME280_temperature;BME280_humidity;BME280_pressure;Samples;Min_cycle;Max_cycle;Signal;HPM_P1;HPM_P2
2023/08/14 00:01:13;;;;;;;7.10;3.97;;;;;;;14.44;100.00;98645.19;4174452;28;20053;-72
2023/08/14 00:03:13;;;;;;;9.23;3.80;;;;;;;14.43;100.00;98649.97;4173579;28;20049;-72
2023/08/14 00:05:13;;;;;;;9.30;3.78;;;;;;;14.39;100.00;98637.25;4174179;28;20041;-72
2023/08/14 00:07:14;;;;;;;8.98;3.47;;;;;;;14.44;100.00;98653.56;4173615;28;20530;-72
2023/08/14 00:09:14;;;;;;;4.95;3.03;;;;;;;14.43;100.00;98647.19;4174601;28;20276;-72
2023/08/14 00:11:14;;;;;;;7.65;4.15;;;;;;;14.36;100.00;98638.06;4173958;28;20107;-72
2023/08/14 00:13:19;;;;;;;5.30;3.63;;;;;;;14.33;100.00;98643.22;4172169;28;20045;-72
2023/08/14 00:15:19;;;;;;;5.47;3.80;;;;;;;14.31;100.00;98647.59;4174124;28;20889;-72
2023/08/14 00:17:20;;;;;;;7.97;3.75;;;;;;;14.26;100.00;98648.81;4173081;28;20075;-72
2023/08/14 00:19:20;;;;;;;9.68;3.55;;;;;;;14.28;100.00;98648.41;4174150;28;20045;-72
2023/08/14 00:21:21;;;;;;;8.15;3.60;;;;;;;14.29;100.00;98653.56;4173056;28;20367;-72
2023/08/14 00:23:22;;;;;;;5.20;3.33;;;;;;;14.25;100.00;98647.22;4173361;28;20131;-72
2023/08/14 00:25:22;;;;;;;4.95;3.53;;;;;;;14.21;100.00;98653.97;4174220;28;20584;-72
2023/08/14 00:27:24;;;;;;;9.07;4.05;;;;;;;14.15;100.00;98645.25;4173908;28;20123;-72
2023/08/14 00:29:26;;;;;;;5.72;3.47;;;;;;;14.06;100.00;98636.47;4174066;28;20408;-72
2023/08/14 00:31:26;;;;;;;6.18;3.53;;;;;;;14.04;100.00;98638.84;4173376;28;20070;-72
2023/08/14 00:33:26;;;;;;;5.20;3.72;;;;;;;14.04;100.00;98647.22;4172864;28;20873;-72
2023/08/14 00:35:27;;;;;;;5.00;3.67;;;;;;;13.99;100.00;98639.28;4173361;28;20504;-72
2023/08/14 00:37:48;;;;;;;6.63;3.42;;;;;;;14.00;100.00;98643.66;4173946;28;20044;-72
2023/08/14 00:39:48;;;;;;;11.52;3.70;;;;;;;14.03;100.00;98645.63;4172842;28;20219;-72
2023/08/14 00:41:49;;;;;;;7.53;3.95;;;;;;;14.01;100.00;98643.25;4173829;28;20055;-72
2023/08/14 00:43:49;;;;;;;6.15;4.05;;;;;;;14.01;100.00;98632.13;4172967;28;20447;-72
2023/08/14 00:45:54;;;;;;;5.63;4.05;;;;;;;13.99;100.00;98631.72;4173633;28;20049;-72
2023/08/14 00:47:54;;;;;;;7.32;4.30;;;;;;;14.00;100.00;98635.31;4171966;28;20052;-72
2023/08/14 00:49:55;;;;;;;7.03;4.00;;;;;;;13.95;100.00;98633.69;4173129;28;20390;-72
2023/08/14 00:51:55;;;;;;;8.68;3.78;;;;;;;13.95;100.00;98632.91;4173499;28;20508;-72
2023/08/14 00:53:55;;;;;;;7.07;3.70;;;;;;;13.92;100.00;98631.72;4172904;28;20548;-72
2023/08/14 00:55:57;;;;;;;4.82;3.60;;;;;;;13.91;100.00;98632.13;4173612;28;20049;-72
2023/08/14 00:57:58;;;;;;;6.53;4.00;;;;;;;13.89;100.00;98631.69;4173629;28;20460;-72
2023/08/14 01:00:00;;;;;;;6.65;3.92;;;;;;;13.85;100.00;98630.91;4173467;28;20053;-72
2023/08/14 01:02:00;;;;;;;6.25;4.20;;;;;;;13.90;100.00;98625.75;4173102;28;20491;-72
2023/08/14 01:04:01;;;;;;;6.90;4.55;;;;;;;13.87;100.00;98620.97;4172739;28;20036;-72
2023/08/14 01:06:01;;;;;;;7.38;4.18;;;;;;;13.83;100.00;98619.41;4173527;28;20472;-72
2023/08/14 01:08:01;;;;;;;8.32;4.10;;;;;;;13.84;100.00;98618.22;4172882;28;20029;-72
2023/08/14 01:10:03;;;;;;;8.13;4.03;;;;;;;13.86;100.00;98624.16;4172302;28;20040;-72
2023/08/14 01:12:28;;;;;;;7.22;3.88;;;;;;;13.83;100.00;98622.97;4173168;28;20078;-72
2023/08/14 01:14:31;;;;;;;9.15;4.53;;;;;;;13.82;100.00;98623.34;4174645;28;20052;-72
2023/08/14 01:16:35;;;;;;;6.97;3.92;;;;;;;13.86;100.00;98630.50;4172671;28;20222;-72
2023/08/14 01:18:38;;;;;;;6.38;3.78;;;;;;;13.86;100.00;98619.38;4172645;28;20073;-72
2023/08/14 01:20:40;;;;;;;8.90;4.07;;;;;;;13.91;100.00;98619.00;4170812;28;20619;-72
2023/08/14 01:22:45;;;;;;;6.55;4.13;;;;;;;13.92;100.00;98623.38;4170943;28;20106;-72
2023/08/14 01:24:59;;;;;;;8.95;4.18;;;;;;;13.93;100.00;98629.72;4174033;28;20401;-72
2023/08/14 01:27:01;;;;;;;5.60;3.55;;;;;;;13.92;100.00;98620.59;4173141;28;20102;-72
2023/08/14 01:29:01;;;;;;;6.70;4.10;;;;;;;13.93;100.00;98619.41;4172033;28;20044;-72
2023/08/14 01:31:02;;;;;;;6.40;4.60;;;;;;;13.90;100.00;98617.41;4173702;28;20057;-72
2023/08/14 01:33:02;;;;;;;6.38;4.03;;;;;;;13.81;100.00;98605.88;4171793;28;20076;-72
2023/08/14 01:35:03;;;;;;;6.28;4.07;;;;;;;13.78;100.00;98615.00;4172539;28;20095;-72
2023/08/14 01:37:17;;;;;;;9.90;4.22;;;;;;;13.76;100.00;98620.97;4172841;28;20045;-72
2023/08/14 01:39:21;;;;;;;7.18;4.07;;;;;;;13.74;100.00;98603.09;4172254;28;20873;-72
2023/08/14 01:41:35;;;;;;;5.40;4.30;;;;;;;13.75;100.00;98611.03;4187016;27;20390;-71
2023/08/14 01:43:43;;;;;;;5.72;4.28;;;;;;;13.73;100.00;98612.63;4169281;28;20041;-71
2023/08/14 01:45:44;;;;;;;4.97;4.15;;;;;;;13.70;100.00;98605.88;4170595;28;20034;-71
2023/08/14 01:47:46;;;;;;;8.35;4.53;;;;;;;13.66;100.00;98609.84;4169573;28;20378;-71
2023/08/14 01:49:47;;;;;;;6.82;3.92;;;;;;;13.68;100.00;98608.25;4169386;28;20045;-71
2023/08/14 01:51:50;;;;;;;5.63;4.33;;;;;;;13.67;100.00;98612.22;4170237;28;20544;-71
2023/08/14 01:53:50;;;;;;;;;;;;;;;13.65;100.00;98597.94;4169233;28;20052;-71
2023/08/14 01:55:51;;;;;;;7.05;3.75;;;;;;;13.64;100.00;98599.09;4169393;28;19921;-71
2023/08/14 01:57:52;;;;;;;8.82;4.13;;;;;;;13.60;100.00;98601.09;4169902;28;20041;-71
2023/08/14 01:59:52;;;;;;;6.93;4.10;;;;;;;13.58;100.00;98597.91;4169388;28;20268;-72
2023/08/14 02:01:52;;;;;;;6.25;4.18;;;;;;;13.60;100.00;98601.09;4169279;28;20084;-71
2023/08/14 02:03:53;;;;;;;9.98;4.70;;;;;;;13.59;100.00;98602.28;4168981;28;20041;-71
2023/08/14 02:05:53;;;;;;;6.20;4.20;;;;;;;13.58;100.00;98597.91;4170433;28;20045;-72
2023/08/14 02:07:54;;;;;;;5.45;4.38;;;;;;;13.55;100.00;98593.13;4169717;28;20053;-71
2023/08/14 02:09:54;;;;;;;10.38;4.40;;;;;;;13.51;100.00;98589.56;4169626;28;20041;-72
2023/08/14 02:11:54;;;;;;;5.70;4.32;;;;;;;13.52;100.00;98591.16;4169295;28;20041;-72
2023/08/14 02:13:55;;;;;;;8.35;4.13;;;;;;;13.51;100.00;98588.78;4168634;28;20064;-71
2023/08/14 02:15:55;;;;;;;7.78;3.88;;;;;;;13.55;100.00;98595.13;4169158;28;20124;-71
2023/08/14 02:17:57;;;;;;;4.30;3.40;;;;;;;13.57;100.00;98590.78;4169178;28;20136;-71
2023/08/14 02:19:58;;;;;;;5.57;3.70;;;;;;;13.56;100.00;98588.38;4169439;28;20156;-71
2023/08/14 02:21:58;;;;;;;5.45;3.85;;;;;;;13.56;100.00;98597.50;4169450;28;20084;-71
2023/08/14 02:23:58;;;;;;;5.70;3.85;;;;;;;13.55;100.00;98587.56;4168807;28;20780;-71
2023/08/14 02:25:59;;;;;;;10.68;4.20;;;;;;;13.52;100.00;98580.03;4169646;28;20049;-71
2023/08/14 02:27:59;;;;;;;8.75;4.10;;;;;;;13.50;100.00;98590.75;4168867;28;20405;-71
2023/08/14 02:29:59;;;;;;;9.00;3.97;;;;;;;13.47;100.00;98585.97;4167609;28;20346;-71
2023/08/14 02:32:00;;;;;;;5.43;3.60;;;;;;;13.45;100.00;98582.81;4168244;28;20168;-71
2023/08/14 02:34:01;;;;;;;6.28;3.80;;;;;;;13.46;100.00;98584.38;4168242;28;20065;-71
2023/08/14 02:36:01;;;;;;;4.65;3.90;;;;;;;13.44;100.00;98586.78;4168830;28;20040;-72
2023/08/14 02:38:05;;;;;;;6.07;3.97;;;;;;;13.40;100.00;98583.97;4169351;28;20017;-72
2023/08/14 02:40:07;;;;;;;6.30;3.58;;;;;;;13.40;100.00;98577.63;4145690;28;20614;-72
2023/08/14 02:42:07;;;;;;;6.72;3.88;;;;;;;13.40;100.00;98583.19;4102000;28;20027;-71
2023/08/14 02:44:08;;;;;;;7.03;3.50;;;;;;;13.38;100.00;98591.13;4103842;28;20250;-72
2023/08/14 02:46:08;;;;;;;7.43;3.75;;;;;;;13.35;100.00;98589.94;4101293;28;20413;-72
2023/08/14 02:48:08;;;;;;;5.22;4.15;;;;;;;13.34;100.00;98593.91;4101538;28;20130;-71
2023/08/14 02:50:09;;;;;;;6.05;4.10;;;;;;;13.33;100.00;98589.53;4100133;28;20081;-72
2023/08/14 02:52:09;;;;;;;8.52;3.95;;;;;;;13.39;100.00;98589.94;4094650;28;20038;-72
2023/08/14 02:54:10;;;;;;;7.85;4.07;;;;;;;13.40;100.00;98575.63;4088826;28;20026;-71
2023/08/14 02:56:10;;;;;;;7.85;4.68;;;;;;;13.41;100.00;98582.00;4089447;28;20027;-71
2023/08/14 02:58:10;;;;;;;6.57;4.70;;;;;;;13.43;100.00;98576.84;4090757;28;20015;-71
2023/08/14 03:00:11;;;;;;;8.48;4.00;;;;;;;13.47;100.00;98581.22;4089075;28;20064;-72
2023/08/14 03:02:11;;;;;;;6.85;4.28;;;;;;;13.44;100.00;98576.44;4090559;28;20375;-71
2023/08/14 03:04:14;;;;;;;7.78;3.92;;;;;;;13.42;100.00;98580.81;4090388;28;20031;-72
2023/08/14 03:06:14;;;;;;;5.68;4.15;;;;;;;13.40;100.00;98572.84;4090114;28;20058;-72
2023/08/14 03:08:14;;;;;;;5.70;3.97;;;;;;;13.39;100.00;98581.59;4090320;28;20030;-72
2023/08/14 03:10:15;;;;;;;8.23;4.65;;;;;;;13.41;100.00;98584.78;4089907;28;20027;-72
2023/08/14 03:12:15;;;;;;;5.75;3.90;;;;;;;13.38;100.00;98580.00;4089475;28;20130;-72
2023/08/14 03:14:15;;;;;;;7.80;3.72;;;;;;;13.36;100.00;98569.28;4090023;28;20142;-72
2023/08/14 03:16:15;;;;;;;5.20;3.47;;;;;;;13.42;100.00;98569.72;4089747;28;20050;-72
2023/08/14 03:18:16;;;;;;;6.93;3.70;;;;;;;13.46;100.00;98562.94;4094533;28;20035;-72
2023/08/14 03:20:16;;;;;;;4.10;3.55;;;;;;;13.47;100.00;98558.97;4090462;28;20130;-72
2023/08/14 03:22:17;;;;;;;7.25;4.25;;;;;;;13.49;100.00;98567.72;4089497;28;20034;-72
2023/08/14 03:24:17;;;;;;;6.55;3.78;;;;;;;13.45;100.00;98557.78;4088935;28;20438;-71
2023/08/14 03:26:17;;;;;;;7.65;3.88;;;;;;;13.43;100.00;98552.63;4090112;28;20117;-72
2023/08/14 03:28:18;;;;;;;5.80;3.80;;;;;;;13.40;100.00;98547.06;4089118;28;20050;-72
2023/08/14 03:30:18;;;;;;;8.70;3.88;;;;;;;13.37;100.00;98554.19;4089955;28;20497;-71
2023/08/14 03:32:18;;;;;;;9.80;4.40;;;;;;;13.32;100.00;98557.38;4093634;28;20328;-72
2023/08/14 03:34:19;;;;;;;4.63;3.67;;;;;;;13.27;100.00;98560.53;4091190;28;20032;-72
2023/08/14 03:36:19;;;;;;;5.45;3.70;;;;;;;13.30;100.00;98565.31;4089983;28;20383;-72
2023/08/14 03:38:20;;;;;;;5.97;3.97;;;;;;;13.33;100.00;98561.75;4090664;28;20054;-71
2023/08/14 03:40:20;;;;;;;6.57;4.35;;;;;;;13.35;100.00;98566.91;4090543;28;20414;-72
2023/08/14 03:42:21;;;;;;;9.20;4.20;;;;;;;13.29;100.00;98568.47;4092333;28;20047;-72
2023/08/14 03:44:21;;;;;;;7.50;4.22;;;;;;;13.25;100.00;98559.34;4089704;28;20062;-72
2023/08/14 03:46:21;;;;;;;9.50;4.18;;;;;;;13.19;100.00;98558.91;4097589;28;20128;-71
2023/08/14 03:48:22;;;;;;;8.18;4.38;;;;;;;13.12;100.00;98548.56;4096741;28;20051;-72
2023/08/14 03:50:22;;;;;;;8.55;4.20;;;;;;;13.15;100.00;98561.66;4103947;28;20104;-72
2023/08/14 03:52:22;;;;;;;5.32;4.47;;;;;;;13.13;100.00;98549.34;4098973;28;20047;-72
2023/08/14 03:54:23;;;;;;;6.13;4.20;;;;;;;13.13;100.00;98554.91;4094864;28;20616;-72
2023/08/14 03:56:23;;;;;;;8.13;4.60;;;;;;;13.12;100.00;98548.56;4105121;28;20047;-72
2023/08/14 03:58:23;;;;;;;7.60;4.85;;;;;;;13.07;100.00;98556.47;4088424;28;20028;-72
2023/08/14 04:00:24;;;;;;;5.45;4.47;;;;;;;13.07;100.00;98553.69;4088827;28;20047;-72
2023/08/14 04:02:24;;;;;;;8.13;4.15;;;;;;;13.09;100.00;98562.47;4089548;28;20058;-72
2023/08/14 04:04:24;;;;;;;9.35;4.35;;;;;;;13.08;100.00;98556.09;4087772;28;20491;-72
2023/08/14 04:06:25;;;;;;;8.05;4.38;;;;;;;13.08;100.00;98552.53;4088803;28;20391;-72
2023/08/14 04:08:25;;;;;;;8.48;4.25;;;;;;;13.08;100.00;98558.09;4090148;28;20068;-72
2023/08/14 04:10:25;;;;;;;7.50;3.90;;;;;;;13.07;100.00;98545.38;4087787;28;20808;-72
2023/08/14 04:12:26;;;;;;;6.68;4.00;;;;;;;13.13;100.00;98555.72;4089231;28;20082;-71
2023/08/14 04:14:26;;;;;;;7.03;4.30;;;;;;;13.10;100.00;98552.94;4086733;28;20126;-72
2023/08/14 04:16:41;;;;;;;6.90;4.15;;;;;;;13.07;100.00;98556.47;4089230;28;20128;-71
2023/08/14 04:18:41;;;;;;;7.80;4.00;;;;;;;13.02;100.00;98554.09;4087797;28;20043;-72
2023/08/14 04:20:42;;;;;;;8.55;4.20;;;;;;;13.00;100.00;98551.72;4089295;28;20510;-72
2023/08/14 04:22:42;;;;;;;9.52;4.57;;;;;;;12.96;100.00;98562.00;4088958;28;20047;-72
2023/08/14 04:24:43;;;;;;;8.02;4.00;;;;;;;13.01;100.00;98561.63;4089655;28;20058;-72
2023/08/14 04:26:43;;;;;;;8.35;4.15;;;;;;;13.01;100.00;98556.09;4089248;28;20523;-72
2023/08/14 04:28:43;;;;;;;6.35;3.83;;;;;;;13.01;100.00;98564.41;4087764;28;20130;-72
2023/08/14 04:30:44;;;;;;;8.85;4.78;;;;;;;13.04;100.00;98562.84;4089652;28;20056;-72
2023/08/14 04:32:44;;;;;;;6.55;4.38;;;;;;;13.02;100.00;98560.44;4087559;28;20483;-72
2023/08/14 04:34:44;;;;;;;6.40;4.03;;;;;;;13.03;100.00;98564.81;4089521;28;20062;-72
2023/08/14 04:36:45;;;;;;;6.38;4.18;;;;;;;13.07;100.00;98567.59;4089536;28;20043;-72
2023/08/14 04:38:45;;;;;;;5.95;4.20;;;;;;;13.09;100.00;98559.69;4090278;28;20039;-72
2023/08/14 04:40:45;;;;;;;7.10;4.30;;;;;;;13.14;100.00;98556.50;4089372;28;20241;-71
2023/08/14 04:42:46;;;;;;;8.23;5.65;;;;;;;13.25;100.00;98553.81;4089240;28;20067;-72
2023/08/14 04:44:46;;;;;;;9.18;4.68;;;;;;;13.27;100.00;98549.44;4089874;28;20051;-72
2023/08/14 04:46:47;;;;;;;6.88;4.53;;;;;;;13.28;100.00;98544.66;4089350;28;20473;-72
2023/08/14 04:48:47;;;;;;;8.55;4.57;;;;;;;13.29;100.00;98549.03;4089923;28;20058;-72
2023/08/14 04:50:48;;;;;;;7.78;4.47;;;;;;;13.32;100.00;98540.72;4091396;28;20569;-72
2023/08/14 04:52:48;;;;;;;5.00;4.25;;;;;;;13.35;100.00;98544.69;4089289;28;20343;-72
2023/08/14 04:54:49;;;;;;;7.75;4.50;;;;;;;13.35;100.00;98553.03;4099741;28;20472;-72
2023/08/14 04:56:50;;;;;;;5.93;4.75;;;;;;;13.34;100.00;98548.66;4107727;28;20063;-72
2023/08/14 04:58:51;;;;;;;5.47;4.13;;;;;;;13.36;100.00;98549.84;4163342;28;20045;-72
2023/08/14 05:00:51;;;;;;;5.47;4.63;;;;;;;13.38;100.00;98552.22;4153125;28;20049;-72
2023/08/14 05:02:52;;;;;;;7.07;4.80;;;;;;;13.39;100.00;98551.81;4155400;28;20056;-72
2023/08/14 05:04:52;;;;;;;8.13;5.30;;;;;;;13.41;100.00;98552.25;4156638;28;20610;-72
2023/08/14 05:06:52;;;;;;;7.13;4.32;;;;;;;13.47;100.00;98558.97;4155100;28;20050;-72
2023/08/14 05:08:53;;;;;;;8.13;4.70;;;;;;;13.54;100.00;98549.84;4155968;28;20049;-72
2023/08/14 05:10:54;;;;;;;7.15;4.45;;;;;;;13.58;100.00;98547.88;4155751;28;20662;-72
2023/08/14 05:12:55;;;;;;;6.57;4.25;;;;;;;13.62;100.00;98545.09;4155441;28;20174;-72
2023/08/14 05:14:55;;;;;;;9.02;4.15;;;;;;;13.68;100.00;98546.28;4156075;28;20069;-72
2023/08/14 05:16:56;;;;;;;4.97;4.25;;;;;;;13.70;100.00;98547.47;4155723;28;20387;-72
2023/08/14 05:18:56;;;;;;;8.57;4.50;;;;;;;13.74;100.00;98548.28;4156313;28;20088;-72
2023/08/14 05:20:56;;;;;;;6.55;4.70;;;;;;;13.76;100.00;98545.91;4153756;28;20141;-72
2023/08/14 05:22:57;;;;;;;6.70;4.43;;;;;;;13.83;100.00;98547.09;4153685;28;20128;-72
2023/08/14 05:24:57;;;;;;;5.72;4.57;;;;;;;13.87;100.00;98545.88;4155079;28;20088;-72
2023/08/14 05:26:57;;;;;;;9.10;4.63;;;;;;;13.92;100.00;98553.84;4154856;28;20099;-72
2023/08/14 05:28:58;;;;;;;8.15;5.43;;;;;;;13.95;100.00;98546.66;4154413;28;20071;-72
2023/08/14 05:30:58;;;;;;;8.15;4.75;;;;;;;13.99;100.00;98547.47;4155135;28;20064;-72
2023/08/14 05:32:58;;;;;;;6.65;5.03;;;;;;;14.03;100.00;98548.25;4154331;28;20034;-72
2023/08/14 05:34:59;;;;;;;8.60;4.43;;;;;;;14.03;100.00;98553.81;4154613;28;20045;-72
2023/08/14 05:36:59;;;;;;;6.68;4.70;;;;;;;14.06;100.00;98545.47;4155899;28;20477;-72
2023/08/14 05:38:59;;;;;;;8.85;5.30;;;;;;;14.13;100.00;98552.22;4155620;28;20048;-72
2023/08/14 05:41:00;;;;;;;9.07;5.07;;;;;;;14.15;100.00;98558.97;4154710;28;20095;-72
2023/08/14 05:43:06;;;;;;;7.15;4.93;;;;;;;14.17;100.00;98542.69;4154394;28;20653;-72
2023/08/14 05:45:07;;;;;;;10.50;5.72;;;;;;;14.18;100.00;98541.47;4155223;28;20049;-72
2023/08/14 05:47:07;;;;;;;9.00;5.18;;;;;;;14.18;100.00;98543.47;4155734;28;20481;-72
2023/08/14 05:49:07;;;;;;;11.77;5.88;;;;;;;14.18;100.00;98546.25;4154778;28;20076;-72
2023/08/14 05:51:08;;;;;;;11.05;5.40;;;;;;;14.19;100.00;98539.50;4155420;28;20515;-72
2023/08/14 05:53:08;;;;;;;9.85;5.45;;;;;;;14.21;100.00;98542.66;4154595;28;20517;-72
2023/08/14 05:55:09;;;;;;;7.85;5.22;;;;;;;14.20;100.00;98541.88;4155587;28;20034;-72
2023/08/14 05:57:09;;;;;;;8.55;6.25;;;;;;;14.22;100.00;98542.25;4156134;28;20498;-72
2023/08/14 05:59:09;;;;;;;10.50;4.57;;;;;;;14.26;100.00;98539.47;4155737;28;20041;-72
2023/08/14 06:01:10;;;;;;;12.93;5.80;;;;;;;14.28;100.00;98532.31;4156080;28;20108;-72
2023/08/14 06:03:10;;;;;;;11.35;6.18;;;;;;;14.31;100.00;98534.31;4155302;28;20053;-72
2023/08/14 06:05:11;;;;;;;12.15;5.93;;;;;;;14.34;100.00;98529.91;4155661;28;20490;-72
2023/08/14 06:07:12;;;;;;;9.73;6.45;;;;;;;14.37;100.00;98531.88;4155674;28;20038;-72
2023/08/14 06:09:12;;;;;;;8.63;5.20;;;;;;;14.39;100.00;98523.91;4155374;28;20099;-72
2023/08/14 06:11:13;;;;;;;12.55;5.68;;;;;;;14.43;100.00;98524.72;4155796;28;20049;-72
2023/08/14 06:13:13;;;;;;;10.40;5.80;;;;;;;14.47;100.00;98513.59;4155427;28;20041;-72
2023/08/14 06:15:14;;;;;;;11.40;6.40;;;;;;;14.55;100.00;98507.59;4155491;28;20037;-72
2023/08/14 06:17:15;;;;;;;8.35;5.45;;;;;;;14.64;100.00;98511.94;4155468;28;20136;-72
2023/08/14 06:19:15;;;;;;;10.85;5.63;;;;;;;14.74;100.00;98506.34;4155925;28;20152;-72
2023/08/14 06:21:15;;;;;;;7.25;5.20;;;;;;;14.85;100.00;98506.28;4155592;28;20072;-72
2023/08/14 06:23:16;;;;;;;10.00;5.43;;;;;;;15.05;100.00;98498.97;4154835;28;20132;-72
2023/08/14 06:25:16;;;;;;;7.82;5.25;;;;;;;15.23;100.00;98504.47;4155541;28;20054;-72
2023/08/14 06:27:17;;;;;;;12.32;5.68;;;;;;;15.48;100.00;98503.50;4157058;28;20437;-72
2023/08/14 06:29:17;;;;;;;13.40;5.90;;;;;;;15.72;100.00;98508.91;4158414;28;20347;-72
2023/08/14 06:31:18;;;;;;;14.25;6.22;;;;;;;15.93;100.00;98499.53;4158366;28;20505;-71
2023/08/14 06:33:18;;;;;;;9.73;5.32;;;;;;;16.06;100.00;98507.41;4158258;28;20321;-71
2023/08/14 06:35:18;;;;;;;13.18;6.00;;;;;;;16.14;100.00;98512.50;4158334;28;20057;-71
2023/08/14 06:37:19;;;;;;;9.23;4.80;;;;;;;16.17;100.00;98517.22;4158682;28;20511;-71
2023/08/14 06:39:20;;;;;;;10.02;5.95;;;;;;;16.23;100.00;98526.75;4158620;28;20100;-71
2023/08/14 06:41:20;;;;;;;10.70;6.22;;;;;;;16.40;100.00;98513.00;4158124;28;20134;-71
2023/08/14 06:43:20;;;;;;;10.48;5.88;;;;;;;16.57;100.00;98520.38;4157919;28;20041;-71
2023/08/14 06:45:21;;;;;;;13.13;6.60;;;;;;;16.60;100.00;98513.16;4158029;28;20050;-73
2023/08/14 06:47:22;;;;;;;7.25;5.32;;;;;;;16.61;100.00;98504.38;4158725;28;20123;-73
2023/08/14 06:49:22;;;;;;;14.55;5.72;;;;;;;16.69;100.00;98503.09;4158351;28;20136;-73
2023/08/14 06:51:22;;;;;;;10.48;6.25;;;;;;;16.77;100.00;98506.59;4158419;28;20552;-72
2023/08/14 06:53:22;;;;;;;13.38;6.00;;;;;;;16.91;100.00;98506.41;4157923;28;20045;-72
2023/08/14 06:55:23;;;;;;;9.70;6.00;;;;;;;17.01;100.00;98504.69;4157967;28;20059;-73
2023/08/14 06:57:23;;;;;;;10.00;5.72;;;;;;;17.12;100.00;98508.09;4158310;28;20045;-72
2023/08/14 06:59:23;;;;;;;6.78;6.05;;;;;;;17.26;100.00;98501.53;4158527;28;20716;-72
2023/08/14 07:01:24;;;;;;;7.88;6.60;;;;;;;17.37;100.00;98497.34;4158137;28;20129;-73
2023/08/14 07:03:24;;;;;;;13.52;7.95;;;;;;;17.49;100.00;98486.78;4157943;28;20045;-73
2023/08/14 07:05:25;;;;;;;8.95;5.90;;;;;;;17.63;100.00;98494.97;4157705;28;20045;-73
2023/08/14 07:07:25;;;;;;;7.80;5.72;;;;;;;17.73;100.00;98499.63;4158080;28;20402;-72
2023/08/14 07:09:25;;;;;;;12.57;6.50;;;;;;;17.82;100.00;98507.47;4158057;28;20045;-72
2023/08/14 07:11:26;;;;;;;8.02;5.15;;;;;;;17.82;100.00;98505.44;4158103;28;20286;-73
2023/08/14 07:13:26;;;;;;;8.32;6.53;;;;;;;17.98;100.00;98507.56;4157842;28;20072;-73
2023/08/14 07:15:26;;;;;;;13.02;5.60;;;;;;;18.11;100.00;98502.13;4157958;28;20041;-73
2023/08/14 07:17:27;;;;;;;8.18;5.10;;;;;;;18.23;100.00;98501.53;4157894;28;20454;-73
2023/08/14 07:19:27;;;;;;;11.65;5.68;;;;;;;18.45;100.00;98496.28;4158446;28;20313;-73
2023/08/14 07:21:28;;;;;;;5.65;5.07;;;;;;;18.65;100.00;98499.09;4157446;28;20501;-72
2023/08/14 07:23:28;;;;;;;9.05;5.57;;;;;;;18.81;100.00;98499.19;4157277;28;20045;-73
2023/08/14 07:25:29;;;;;;;8.82;5.20;;;;;;;18.95;100.00;98498.88;4157677;28;20045;-73
2023/08/14 07:27:29;;;;;;;9.95;5.93;;;;;;;19.01;100.00;98493.53;4158296;28;20104;-73
2023/08/14 07:29:29;;;;;;;6.95;6.03;;;;;;;18.96;100.00;98494.88;4157975;28;20572;-73
2023/08/14 07:31:30;;;;;;;7.95;5.50;;;;;;;18.93;100.00;98492.91;4157523;28;20049;-73
2023/08/14 07:33:30;;;;;;;6.38;4.90;;;;;;;18.99;100.00;98487.59;4157768;28;20037;-73
2023/08/14 07:35:31;;;;;;;8.15;5.10;;;;;;;19.06;100.00;98491.03;4157495;28;20609;-73
2023/08/14 07:37:31;;;;;;;8.07;4.85;;;;;;;19.17;100.00;98492.78;4157283;28;20516;-73
2023/08/14 07:39:32;;;;;;;8.65;6.15;;;;;;;19.24;100.00;98506.66;4143794;28;20468;-73
2023/08/14 07:41:32;;;;;;;6.05;4.70;;;;;;;19.32;100.00;98494.84;4174015;28;20830;-73
2023/08/14 07:43:32;;;;;;;7.55;4.93;;;;;;;19.43;100.00;98496.59;4173702;28;20047;-73
2023/08/14 07:45:33;;;;;;;7.80;5.35;;;;;;;19.56;100.00;98495.50;4174505;28;20128;-73
2023/08/14 07:47:34;;;;;;;5.65;4.82;;;;;;;19.69;100.00;98495.56;4173885;28;20040;-73
2023/08/14 07:49:34;;;;;;;6.53;5.15;;;;;;;19.79;100.00;98493.75;4174159;28;20045;-73
2023/08/14 07:51:34;;;;;;;7.32;5.10;;;;;;;19.90;100.00;98489.44;4173221;28;20049;-73
2023/08/14 07:53:35;;;;;;;5.80;4.57;;;;;;;20.04;100.00;98493.88;4173755;28;20118;-73
2023/08/14 07:55:36;;;;;;;7.45;5.20;;;;;;;20.17;100.00;98491.91;4173667;28;20045;-73
2023/08/14 07:57:36;;;;;;;12.70;5.20;;;;;;;20.28;100.00;98479.63;4158928;28;20457;-73
2023/08/14 07:59:37;;;;;;;10.25;5.63;;;;;;;20.44;100.00;98490.84;4173484;28;20288;-73
2023/08/14 08:01:37;;;;;;;8.38;5.32;;;;;;;20.58;100.00;98481.19;4173699;28;20565;-73
2023/08/14 08:03:37;;;;;;;5.97;5.03;;;;;;;20.76;100.00;98495.53;4173364;28;20048;-73
2023/08/14 08:05:38;;;;;;;5.70;5.10;;;;;;;20.96;100.00;98482.06;4173401;28;20527;-73
2023/08/14 08:07:38;;;;;;;5.50;5.00;;;;;;;21.11;100.00;98490.88;4173794;28;20136;-73
2023/08/14 08:09:38;;;;;;;8.98;5.70;;;;;;;21.19;100.00;98489.41;4172004;28;20050;-73
2023/08/14 08:11:39;;;;;;;6.40;5.20;;;;;;;21.23;100.00;98490.09;4173484;28;20469;-73
2023/08/14 08:13:39;;;;;;;6.60;5.32;;;;;;;21.33;100.00;98488.19;4173470;28;20152;-73
2023/08/14 08:15:39;;;;;;;9.55;5.20;;;;;;;21.40;100.00;98485.16;4173869;28;20064;-73
2023/08/14 08:17:40;;;;;;;6.50;5.40;;;;;;;21.47;100.00;98479.31;4173482;28;20048;-73
2023/08/14 08:19:40;;;;;;;9.90;5.05;;;;;;;21.63;100.00;98469.94;4173292;28;20044;-73
2023/08/14 08:21:41;;;;;;;6.18;5.53;;;;;;;21.81;100.00;98470.13;4173141;28;20140;-73
2023/08/14 08:23:41;;;;;;;7.05;5.15;;;;;;;21.87;100.00;98459.88;4172445;28;20064;-73
2023/08/14 08:25:42;;;;;;;6.35;5.35;;;;;;;21.99;100.00;98471.53;4173690;28;20055;-73
2023/08/14 08:27:42;;;;;;;8.18;5.50;;;;;;;22.11;100.00;98467.94;4173460;28;20055;-73
2023/08/14 08:29:43;;;;;;;7.13;5.30;;;;;;;22.19;100.00;98457.22;4173149;28;20706;-74
2023/08/14 08:31:43;;;;;;;6.60;5.53;;;;;;;22.28;100.00;98452.44;4173217;28;20060;-73
2023/08/14 08:33:43;;;;;;;7.75;5.97;;;;;;;22.39;100.00;98471.75;4172443;28;20045;-73
2023/08/14 08:35:43;;;;;;;7.82;6.07;;;;;;;22.49;100.00;98459.31;4173517;28;20041;-74
2023/08/14 08:37:44;;;;;;;6.38;5.78;;;;;;;22.56;100.00;98464.69;4173028;28;20044;-74
2023/08/14 08:39:44;;;;;;;7.32;6.38;;;;;;;22.67;100.00;98469.91;4172993;28;20836;-73
2023/08/14 08:41:46;;;;;;;7.60;5.55;;;;;;;22.75;100.00;98464.78;4173132;28;20033;-74
2023/08/14 08:43:55;;;;;;;8.23;5.85;;;;;;;22.83;100.00;98455.59;4172075;28;20049;-73
2023/08/14 08:45:58;;;;;;;5.63;5.13;;;;;;;23.02;100.00;98447.28;4173099;28;20037;-73
2023/08/14 08:48:05;;;;;;;6.07;5.47;;;;;;;23.12;100.00;98444.03;4173285;28;20068;-74
2023/08/14 08:50:06;;;;;;;5.78;5.18;;;;;;;23.23;100.00;98452.84;4171056;28;20079;-74
2023/08/14 08:52:07;;;;;;;6.30;5.45;;;;;;;23.33;100.00;98442.38;4173365;28;20360;-74
2023/08/14 08:54:08;;;;;;;7.72;5.75;;;;;;;23.30;100.00;98440.50;4172337;28;20480;-74
2023/08/14 08:56:09;;;;;;;7.72;5.90;;;;;;;23.28;100.00;98437.34;4172961;28;20033;-74
2023/08/14 08:58:10;;;;;;;7.13;5.32;;;;;;;23.29;100.00;98440.97;4172560;28;20037;-74
2023/08/14 09:00:11;;;;;;;6.35;5.38;;;;;;;23.26;100.00;98437.03;4173104;28;20369;-74
2023/08/14 09:02:11;;;;;;;8.32;6.05;;;;;;;23.35;100.00;98437.06;4172333;28;20029;-74
2023/08/14 09:04:12;;;;;;;7.47;5.68;;;;;;;23.38;100.00;98438.16;4171933;28;20079;-74
2023/08/14 09:06:12;;;;;;;9.75;6.18;;;;;;;23.44;100.00;98444.78;4173036;28;20060;-74
2023/08/14 09:08:13;;;;;;;6.95;5.90;;;;;;;23.53;100.00;98445.59;4172505;28;20025;-74
2023/08/14 09:10:13;;;;;;;7.13;5.53;;;;;;;23.66;100.00;98451.13;4172576;28;20025;-74
2023/08/14 09:12:13;;;;;;;6.88;5.90;;;;;;;23.78;100.00;98453.06;4172707;28;20171;-74
2023/08/14 09:14:15;;;;;;;6.28;5.05;;;;;;;23.90;100.00;98456.97;4172131;28;20028;-74
2023/08/14 09:16:16;;;;;;;5.95;5.35;;;;;;;23.93;100.00;98447.59;4172202;28;20041;-74
2023/08/14 09:18:16;;;;;;;7.65;5.90;;;;;;;24.03;100.00;98454.81;4172041;28;20211;-74
2023/08/14 09:20:18;;;;;;;8.18;5.75;;;;;;;24.12;100.00;98441.94;4172964;28;20488;-74
2023/08/14 09:22:18;;;;;;;7.93;5.38;;;;;;;24.31;100.00;98440.69;4172455;28;20529;-74